sensor_id;sensor_type;location;lat;lon;timestamp;temperature;humidity
36458;DHT22;22480;50.546;12.292;2023-12-28T00:00:30;6.10;99.90
36458;DHT22;22480;50.546;12.292;2023-12-28T00:02:56;6.10;99.90
36458;DHT22;22480;50.546;12.292;2023-12-28T00:05:21;6.20;99.90
36458;DHT22;22480;50.546;12.292;2023-12-28T00:07:47;6.30;99.90
36458;DHT22;22480;50.546;12.292;2023-12-28T00:10:13;6.40;99.90
36458;DHT22;22480;50.546;12.292;2023-12-28T00:12:38;6.50;99.90
36458;DHT22;22480;50.546;12.292;2023-12-28T00:15:04;6.60;99.90
36458;DHT22;22480;50.546;12.292;2023-12-28T00:17:30;6.60;99.90
36458;DHT22;22480;50.546;12.292;2023-12-28T00:19:56;6.60;99.90
36458;DHT22;22480;50.546;12.292;2023-12-28T00:22:22;6.70;99.90
36458;DHT22;22480;50.546;12.292;2023-12-28T00:24:48;6.60;99.90
36458;DHT22;22480;50.546;12.292;2023-12-28T00:27:13;6.50;99.90
36458;DHT22;22480;50.546;12.292;2023-12-28T00:29:39;6.60;99.90
36458;DHT22;22480;50.546;12.292;2023-12-28T00:32:06;6.60;99.90
36458;DHT22;22480;50.546;12.292;2023-12-28T00:34:32;6.50;99.90
36458;DHT22;22480;50.546;12.292;2023-12-28T00:36:58;6.40;99.90
36458;DHT22;22480;50.546;12.292;2023-12-28T00:39:24;6.30;99.90
36458;DHT22;22480;50.546;12.292;2023-12-28T00:41:49;6.30;99.90
36458;DHT22;22480;50.546;12.292;2023-12-28T00:44:15;6.30;99.90
36458;DHT22;22480;50.546;12.292;2023-12-28T00:46:41;6.30;99.90
36458;DHT22;22480;50.546;12.292;2023-12-28T00:49:07;6.30;99.90
36458;DHT22;22480;50.546;12.292;2023-12-28T00:51:33;6.40;99.90
36458;DHT22;22480;50.546;12.292;2023-12-28T00:53:59;6.30;99.90
36458;DHT22;22480;50.546;12.292;2023-12-28T00:56:25;6.50;99.90
36458;DHT22;22480;50.546;12.292;2023-12-28T00:58:51;6.60;99.90
36458;DHT22;22480;50.546;12.292;2023-12-28T01:01:18;6.60;99.90
36458;DHT22;22480;50.546;12.292;2023-12-28T01:03:43;6.60;99.90
36458;DHT22;22480;50.546;12.292;2023-12-28T01:06:09;6.50;99.90
36458;DHT22;22480;50.546;12.292;2023-12-28T01:08:35;6.40;99.90
36458;DHT22;22480;50.546;12.292;2023-12-28T01:11:01;6.50;99.90
36458;DHT22;22480;50.546;12.292;2023-12-28T01:13:28;6.30;99.90
36458;DHT22;22480;50.546;12.292;2023-12-28T01:15:54;6.30;99.90
36458;DHT22;22480;50.546;12.292;2023-12-28T01:18:20;6.30;99.90
36458;DHT22;22480;50.546;12.292;2023-12-28T01:20:46;6.20;99.90
36458;DHT22;22480;50.546;12.292;2023-12-28T01:23:12;6.20;99.90
36458;DHT22;22480;50.546;12.292;2023-12-28T01:25:37;6.00;99.90
36458;DHT22;22480;50.546;12.292;2023-12-28T01:28:03;5.90;99.90
36458;DHT22;22480;50.546;12.292;2023-12-28T01:30:30;5.80;99.90
36458;DHT22;22480;50.546;12.292;2023-12-28T01:32:56;5.90;99.90
36458;DHT22;22480;50.546;12.292;2023-12-28T01:35:21;6.10;98.60
36458;DHT22;22480;50.546;12.292;2023-12-28T01:37:47;6.50;94.00
36458;DHT22;22480;50.546;12.292;2023-12-28T01:40:13;6.60;92.70
36458;DHT22;22480;50.546;12.292;2023-12-28T01:42:40;6.70;90.20
36458;DHT22;22480;50.546;12.292;2023-12-28T01:45:06;7.10;87.30
36458;DHT22;22480;50.546;12.292;2023-12-28T01:47:32;7.30;83.40
36458;DHT22;22480;50.546;12.292;2023-12-28T01:49:58;7.60;81.00
36458;DHT22;22480;50.546;12.292;2023-12-28T01:52:25;7.90;79.10
36458;DHT22;22480;50.546;12.292;2023-12-28T01:54:50;7.90;78.80
36458;DHT22;22480;50.546;12.292;2023-12-28T01:57:17;7.90;76.70
36458;DHT22;22480;50.546;12.292;2023-12-28T01:59:43;8.10;76.50
36458;DHT22;22480;50.546;12.292;2023-12-28T02:02:09;8.20;76.20
36458;DHT22;22480;50.546;12.292;2023-12-28T02:04:36;8.20;76.50
36458;DHT22;22480;50.546;12.292;2023-12-28T02:07:01;8.30;75.20
36458;DHT22;22480;50.546;12.292;2023-12-28T02:09:27;8.40;75.10
36458;DHT22;22480;50.546;12.292;2023-12-28T02:11:54;8.40;74.60
36458;DHT22;22480;50.546;12.292;2023-12-28T02:14:21;8.40;75.50
36458;DHT22;22480;50.546;12.292;2023-12-28T02:16:56;8.40;74.70
36458;DHT22;22480;50.546;12.292;2023-12-28T02:19:25;8.30;75.40
36458;DHT22;22480;50.546;12.292;2023-12-28T02:21:59;8.30;75.40
36458;DHT22;22480;50.546;12.292;2023-12-28T02:24:25;8.30;76.30
36458;DHT22;22480;50.546;12.292;2023-12-28T02:26:50;8.30;75.90
36458;DHT22;22480;50.546;12.292;2023-12-28T02:29:16;8.40;75.50
36458;DHT22;22480;50.546;12.292;2023-12-28T02:32:03;8.40;75.40
36458;DHT22;22480;50.546;12.292;2023-12-28T02:34:37;8.20;76.30
36458;DHT22;22480;50.546;12.292;2023-12-28T02:37:05;8.30;75.70
36458;DHT22;22480;50.546;12.292;2023-12-28T02:39:31;8.30;75.80
36458;DHT22;22480;50.546;12.292;2023-12-28T02:41:58;8.30;76.20
36458;DHT22;22480;50.546;12.292;2023-12-28T02:44:23;8.30;75.70
36458;DHT22;22480;50.546;12.292;2023-12-28T02:46:49;8.30;75.60
36458;DHT22;22480;50.546;12.292;2023-12-28T02:49:15;8.30;76.50
36458;DHT22;22480;50.546;12.292;2023-12-28T02:51:41;8.30;76.10
36458;DHT22;22480;50.546;12.292;2023-12-28T02:54:09;8.10;77.10
36458;DHT22;22480;50.546;12.292;2023-12-28T02:56:34;8.10;77.50
36458;DHT22;22480;50.546;12.292;2023-12-28T02:59:00;8.10;77.70
36458;DHT22;22480;50.546;12.292;2023-12-28T03:01:26;8.10;77.30
36458;DHT22;22480;50.546;12.292;2023-12-28T03:03:52;8.00;78.60
36458;DHT22;22480;50.546;12.292;2023-12-28T03:06:18;8.00;77.90
36458;DHT22;22480;50.546;12.292;2023-12-28T03:08:44;8.00;78.50
36458;DHT22;22480;50.546;12.292;2023-12-28T03:11:11;7.90;80.60
36458;DHT22;22480;50.546;12.292;2023-12-28T03:13:37;7.80;80.10
36458;DHT22;22480;50.546;12.292;2023-12-28T03:16:03;7.90;80.50
36458;DHT22;22480;50.546;12.292;2023-12-28T03:18:29;7.70;80.90
36458;DHT22;22480;50.546;12.292;2023-12-28T03:20:54;7.70;82.70
36458;DHT22;22480;50.546;12.292;2023-12-28T03:23:20;7.60;81.80
36458;DHT22;22480;50.546;12.292;2023-12-28T03:25:46;7.60;81.70
36458;DHT22;22480;50.546;12.292;2023-12-28T03:28:11;7.50;82.00
36458;DHT22;22480;50.546;12.292;2023-12-28T03:30:37;7.60;81.80
36458;DHT22;22480;50.546;12.292;2023-12-28T03:33:03;7.60;81.10
36458;DHT22;22480;50.546;12.292;2023-12-28T03:35:29;7.60;81.40
36458;DHT22;22480;50.546;12.292;2023-12-28T03:37:54;7.70;81.40
36458;DHT22;22480;50.546;12.292;2023-12-28T03:40:20;7.70;80.90
36458;DHT22;22480;50.546;12.292;2023-12-28T03:42:46;7.80;79.90
36458;DHT22;22480;50.546;12.292;2023-12-28T03:45:11;7.80;79.80
36458;DHT22;22480;50.546;12.292;2023-12-28T03:47:37;7.80;81.10
36458;DHT22;22480;50.546;12.292;2023-12-28T03:50:03;7.80;81.10
36458;DHT22;22480;50.546;12.292;2023-12-28T03:52:29;7.80;79.80
36458;DHT22;22480;50.546;12.292;2023-12-28T03:54:56;7.90;79.10
36458;DHT22;22480;50.546;12.292;2023-12-28T03:57:21;7.90;78.70
36458;DHT22;22480;50.546;12.292;2023-12-28T03:59:47;7.90;78.90
36458;DHT22;22480;50.546;12.292;2023-12-28T04:02:13;8.10;78.80
36458;DHT22;22480;50.546;12.292;2023-12-28T04:04:39;8.10;79.40
36458;DHT22;22480;50.546;12.292;2023-12-28T04:07:05;8.10;79.30
36458;DHT22;22480;50.546;12.292;2023-12-28T04:09:33;8.20;78.10
36458;DHT22;22480;50.546;12.292;2023-12-28T04:11:59;8.30;76.70
36458;DHT22;22480;50.546;12.292;2023-12-28T04:14:24;8.40;77.40
36458;DHT22;22480;50.546;12.292;2023-12-28T04:16:51;8.30;76.70
36458;DHT22;22480;50.546;12.292;2023-12-28T04:19:16;8.40;76.70
36458;DHT22;22480;50.546;12.292;2023-12-28T04:21:45;8.40;77.00
36458;DHT22;22480;50.546;12.292;2023-12-28T04:24:11;8.50;77.30
36458;DHT22;22480;50.546;12.292;2023-12-28T04:26:36;8.40;78.40
36458;DHT22;22480;50.546;12.292;2023-12-28T04:29:02;8.30;78.00
36458;DHT22;22480;50.546;12.292;2023-12-28T04:31:28;8.20;80.00
36458;DHT22;22480;50.546;12.292;2023-12-28T04:33:54;8.20;80.30
36458;DHT22;22480;50.546;12.292;2023-12-28T04:36:20;8.20;80.30
36458;DHT22;22480;50.546;12.292;2023-12-28T04:38:45;8.20;81.30
36458;DHT22;22480;50.546;12.292;2023-12-28T04:41:11;8.20;82.50
36458;DHT22;22480;50.546;12.292;2023-12-28T04:43:38;8.10;81.30
36458;DHT22;22480;50.546;12.292;2023-12-28T04:46:04;8.10;82.10
36458;DHT22;22480;50.546;12.292;2023-12-28T04:48:31;8.10;81.40
36458;DHT22;22480;50.546;12.292;2023-12-28T04:50:57;8.10;81.60
36458;DHT22;22480;50.546;12.292;2023-12-28T04:53:24;8.20;82.30
36458;DHT22;22480;50.546;12.292;2023-12-28T04:55:49;8.10;83.90
36458;DHT22;22480;50.546;12.292;2023-12-28T04:58:15;8.10;85.90
36458;DHT22;22480;50.546;12.292;2023-12-28T05:00:41;8.10;86.50
36458;DHT22;22480;50.546;12.292;2023-12-28T05:03:06;8.00;87.00
36458;DHT22;22480;50.546;12.292;2023-12-28T05:05:32;8.00;87.60
36458;DHT22;22480;50.546;12.292;2023-12-28T05:07:58;8.00;89.00
36458;DHT22;22480;50.546;12.292;2023-12-28T05:10:24;7.90;90.10
36458;DHT22;22480;50.546;12.292;2023-12-28T05:12:50;8.00;90.40
36458;DHT22;22480;50.546;12.292;2023-12-28T05:15:15;8.00;90.70
36458;DHT22;22480;50.546;12.292;2023-12-28T05:17:42;8.10;90.90
36458;DHT22;22480;50.546;12.292;2023-12-28T05:20:09;8.20;91.30
36458;DHT22;22480;50.546;12.292;2023-12-28T05:22:34;8.30;90.90
36458;DHT22;22480;50.546;12.292;2023-12-28T05:25:00;8.30;91.50
36458;DHT22;22480;50.546;12.292;2023-12-28T05:27:26;8.30;91.30
36458;DHT22;22480;50.546;12.292;2023-12-28T05:29:51;8.20;92.20
36458;DHT22;22480;50.546;12.292;2023-12-28T05:32:17;8.20;91.80
36458;DHT22;22480;50.546;12.292;2023-12-28T05:34:43;8.20;91.70
36458;DHT22;22480;50.546;12.292;2023-12-28T05:37:08;8.20;92.20
36458;DHT22;22480;50.546;12.292;2023-12-28T05:39:34;8.20;92.50
36458;DHT22;22480;50.546;12.292;2023-12-28T05:42:00;8.20;92.30
36458;DHT22;22480;50.546;12.292;2023-12-28T05:44:25;8.20;93.50
36458;DHT22;22480;50.546;12.292;2023-12-28T05:46:51;8.10;93.80
36458;DHT22;22480;50.546;12.292;2023-12-28T05:49:17;8.00;94.20
36458;DHT22;22480;50.546;12.292;2023-12-28T05:51:43;8.10;94.60
36458;DHT22;22480;50.546;12.292;2023-12-28T05:54:09;8.10;94.10
36458;DHT22;22480;50.546;12.292;2023-12-28T05:56:35;8.10;95.70
36458;DHT22;22480;50.546;12.292;2023-12-28T05:59:01;8.00;95.70
36458;DHT22;22480;50.546;12.292;2023-12-28T06:01:27;8.00;95.60
36458;DHT22;22480;50.546;12.292;2023-12-28T06:03:53;8.00;96.60
36458;DHT22;22480;50.546;12.292;2023-12-28T06:06:19;8.00;96.90
36458;DHT22;22480;50.546;12.292;2023-12-28T06:08:45;7.90;99.00
36458;DHT22;22480;50.546;12.292;2023-12-28T06:11:10;7.90;99.90
36458;DHT22;22480;50.546;12.292;2023-12-28T06:13:36;7.90;99.90
36458;DHT22;22480;50.546;12.292;2023-12-28T06:16:02;7.90;99.90
36458;DHT22;22480;50.546;12.292;2023-12-28T06:18:28;7.80;99.90
36458;DHT22;22480;50.546;12.292;2023-12-28T06:20:53;7.80;99.90
36458;DHT22;22480;50.546;12.292;2023-12-28T06:23:19;7.80;99.90
36458;DHT22;22480;50.546;12.292;2023-12-28T06:25:45;7.80;99.90
36458;DHT22;22480;50.546;12.292;2023-12-28T06:28:10;7.70;99.90
36458;DHT22;22480;50.546;12.292;2023-12-28T06:30:36;7.70;99.90
36458;DHT22;22480;50.546;12.292;2023-12-28T06:33:02;7.60;99.90
36458;DHT22;22480;50.546;12.292;2023-12-28T06:35:27;7.60;99.90
36458;DHT22;22480;50.546;12.292;2023-12-28T06:37:53;7.60;99.90
36458;DHT22;22480;50.546;12.292;2023-12-28T06:40:19;7.60;99.90
36458;DHT22;22480;50.546;12.292;2023-12-28T06:42:44;7.60;99.90
36458;DHT22;22480;50.546;12.292;2023-12-28T06:45:10;7.60;99.90
36458;DHT22;22480;50.546;12.292;2023-12-28T06:47:36;7.50;99.90
36458;DHT22;22480;50.546;12.292;2023-12-28T06:50:02;7.50;99.90
36458;DHT22;22480;50.546;12.292;2023-12-28T06:52:28;7.50;99.90
36458;DHT22;22480;50.546;12.292;2023-12-28T06:54:54;7.50;99.90
36458;DHT22;22480;50.546;12.292;2023-12-28T06:57:20;7.50;99.90
36458;DHT22;22480;50.546;12.292;2023-12-28T06:59:45;7.40;99.90
36458;DHT22;22480;50.546;12.292;2023-12-28T07:02:11;7.40;99.90
36458;DHT22;22480;50.546;12.292;2023-12-28T07:04:36;7.40;99.90
36458;DHT22;22480;50.546;12.292;2023-12-28T07:07:03;7.50;99.90
36458;DHT22;22480;50.546;12.292;2023-12-28T07:09:29;7.50;99.90
36458;DHT22;22480;50.546;12.292;2023-12-28T07:11:54;7.40;99.90
36458;DHT22;22480;50.546;12.292;2023-12-28T07:14:20;7.40;99.90
36458;DHT22;22480;50.546;12.292;2023-12-28T07:16:46;7.40;99.90
36458;DHT22;22480;50.546;12.292;2023-12-28T07:19:11;7.30;99.90
36458;DHT22;22480;50.546;12.292;2023-12-28T07:21:37;7.30;99.90
36458;DHT22;22480;50.546;12.292;2023-12-28T07:24:03;7.30;99.90
36458;DHT22;22480;50.546;12.292;2023-12-28T07:26:28;7.30;99.90
36458;DHT22;22480;50.546;12.292;2023-12-28T07:28:54;7.30;99.90
36458;DHT22;22480;50.546;12.292;2023-12-28T07:31:27;7.30;99.90
36458;DHT22;22480;50.546;12.292;2023-12-28T07:33:53;7.30;99.90
36458;DHT22;22480;50.546;12.292;2023-12-28T07:36:20;7.30;99.90
36458;DHT22;22480;50.546;12.292;2023-12-28T07:38:46;7.30;99.90
36458;DHT22;22480;50.546;12.292;2023-12-28T07:41:12;7.30;99.90
36458;DHT22;22480;50.546;12.292;2023-12-28T07:43:37;7.30;99.90
36458;DHT22;22480;50.546;12.292;2023-12-28T07:46:03;7.30;99.90
36458;DHT22;22480;50.546;12.292;2023-12-28T07:48:30;7.20;99.90
36458;DHT22;22480;50.546;12.292;2023-12-28T07:50:57;7.30;99.90
36458;DHT22;22480;50.546;12.292;2023-12-28T07:53:22;7.30;99.90
36458;DHT22;22480;50.546;12.292;2023-12-28T07:55:48;7.30;99.90
36458;DHT22;22480;50.546;12.292;2023-12-28T07:58:14;7.30;99.90
36458;DHT22;22480;50.546;12.292;2023-12-28T08:00:40;7.30;99.90
36458;DHT22;22480;50.546;12.292;2023-12-28T08:03:06;7.30;99.90
36458;DHT22;22480;50.546;12.292;2023-12-28T08:05:31;7.30;99.90
36458;DHT22;22480;50.546;12.292;2023-12-28T08:07:57;7.30;99.90
36458;DHT22;22480;50.546;12.292;2023-12-28T08:10:23;7.30;99.90
36458;DHT22;22480;50.546;12.292;2023-12-28T08:12:48;7.30;99.90
36458;DHT22;22480;50.546;12.292;2023-12-28T08:15:14;7.30;99.90
36458;DHT22;22480;50.546;12.292;2023-12-28T08:17:40;7.30;99.90
36458;DHT22;22480;50.546;12.292;2023-12-28T08:20:06;7.30;99.90
36458;DHT22;22480;50.546;12.292;2023-12-28T08:22:32;7.30;99.90
36458;DHT22;22480;50.546;12.292;2023-12-28T08:24:58;7.40;99.90
36458;DHT22;22480;50.546;12.292;2023-12-28T08:27:23;7.40;99.90
36458;DHT22;22480;50.546;12.292;2023-12-28T08:29:49;7.40;99.90
36458;DHT22;22480;50.546;12.292;2023-12-28T08:32:15;7.40;99.90
36458;DHT22;22480;50.546;12.292;2023-12-28T08:34:40;7.40;99.90
36458;DHT22;22480;50.546;12.292;2023-12-28T08:37:06;7.40;99.90
36458;DHT22;22480;50.546;12.292;2023-12-28T08:39:32;7.40;99.90
36458;DHT22;22480;50.546;12.292;2023-12-28T08:41:58;7.40;99.90
36458;DHT22;22480;50.546;12.292;2023-12-28T08:44:24;7.40;99.90
36458;DHT22;22480;50.546;12.292;2023-12-28T08:46:49;7.40;99.90
36458;DHT22;22480;50.546;12.292;2023-12-28T08:49:15;7.40;99.90
36458;DHT22;22480;50.546;12.292;2023-12-28T08:51:41;7.50;99.90
36458;DHT22;22480;50.546;12.292;2023-12-28T08:54:08;7.50;99.90
36458;DHT22;22480;50.546;12.292;2023-12-28T08:56:34;7.50;99.90
36458;DHT22;22480;50.546;12.292;2023-12-28T08:59:01;7.60;99.90
36458;DHT22;22480;50.546;12.292;2023-12-28T09:01:26;7.60;99.90
36458;DHT22;22480;50.546;12.292;2023-12-28T09:03:53;7.60;99.90
36458;DHT22;22480;50.546;12.292;2023-12-28T09:06:22;7.60;99.90
36458;DHT22;22480;50.546;12.292;2023-12-28T09:08:49;7.70;99.90
36458;DHT22;22480;50.546;12.292;2023-12-28T09:11:19;7.60;99.90
36458;DHT22;22480;50.546;12.292;2023-12-28T09:13:45;7.70;99.90
36458;DHT22;22480;50.546;12.292;2023-12-28T09:16:12;7.70;99.90
36458;DHT22;22480;50.546;12.292;2023-12-28T09:18:39;7.70;99.90
36458;DHT22;22480;50.546;12.292;2023-12-28T09:21:08;7.60;99.90
36458;DHT22;22480;50.546;12.292;2023-12-28T09:23:35;7.70;99.90
36458;DHT22;22480;50.546;12.292;2023-12-28T09:26:02;7.60;99.90
36458;DHT22;22480;50.546;12.292;2023-12-28T09:28:32;7.60;99.90
36458;DHT22;22480;50.546;12.292;2023-12-28T09:30:57;7.60;99.90
36458;DHT22;22480;50.546;12.292;2023-12-28T09:33:23;7.50;99.90
36458;DHT22;22480;50.546;12.292;2023-12-28T09:35:49;7.50;99.90
36458;DHT22;22480;50.546;12.292;2023-12-28T09:38:15;7.50;99.90
36458;DHT22;22480;50.546;12.292;2023-12-28T09:40:44;7.50;99.90
36458;DHT22;22480;50.546;12.292;2023-12-28T09:43:23;7.50;99.90
36458;DHT22;22480;50.546;12.292;2023-12-28T09:45:49;7.50;99.90
36458;DHT22;22480;50.546;12.292;2023-12-28T09:48:16;7.60;99.90
36458;DHT22;22480;50.546;12.292;2023-12-28T09:50:44;7.60;99.90
36458;DHT22;22480;50.546;12.292;2023-12-28T09:53:10;7.50;99.90
36458;DHT22;22480;50.546;12.292;2023-12-28T09:55:35;7.50;99.90
36458;DHT22;22480;50.546;12.292;2023-12-28T09:58:03;7.50;99.90
36458;DHT22;22480;50.546;12.292;2023-12-28T10:00:31;7.60;99.90
36458;DHT22;22480;50.546;12.292;2023-12-28T10:02:57;7.60;99.90
36458;DHT22;22480;50.546;12.292;2023-12-28T10:05:23;7.60;99.90
36458;DHT22;22480;50.546;12.292;2023-12-28T10:07:49;7.60;99.90
36458;DHT22;22480;50.546;12.292;2023-12-28T10:10:15;7.70;99.90
36458;DHT22;22480;50.546;12.292;2023-12-28T10:12:42;7.70;99.90
36458;DHT22;22480;50.546;12.292;2023-12-28T10:15:08;7.70;99.90
36458;DHT22;22480;50.546;12.292;2023-12-28T10:17:35;7.60;99.90
36458;DHT22;22480;50.546;12.292;2023-12-28T10:20:04;7.70;99.90
36458;DHT22;22480;50.546;12.292;2023-12-28T10:22:34;7.70;99.90
36458;DHT22;22480;50.546;12.292;2023-12-28T10:25:03;7.70;99.90
36458;DHT22;22480;50.546;12.292;2023-12-28T10:27:29;7.70;99.90
36458;DHT22;22480;50.546;12.292;2023-12-28T10:29:56;7.70;99.90
36458;DHT22;22480;50.546;12.292;2023-12-28T10:32:22;7.80;99.90
36458;DHT22;22480;50.546;12.292;2023-12-28T10:34:52;7.70;99.90
36458;DHT22;22480;50.546;12.292;2023-12-28T10:37:23;7.70;99.90
36458;DHT22;22480;50.546;12.292;2023-12-28T10:39:53;7.80;99.90
36458;DHT22;22480;50.546;12.292;2023-12-28T10:42:54;7.80;99.90
36458;DHT22;22480;50.546;12.292;2023-12-28T10:45:20;7.80;99.90
36458;DHT22;22480;50.546;12.292;2023-12-28T10:48:00;7.90;99.90
36458;DHT22;22480;50.546;12.292;2023-12-28T10:50:30;7.90;99.90
36458;DHT22;22480;50.546;12.292;2023-12-28T10:53:00;7.90;99.90
36458;DHT22;22480;50.546;12.292;2023-12-28T10:55:36;8.00;99.90
36458;DHT22;22480;50.546;12.292;2023-12-28T10:58:12;8.00;99.90
36458;DHT22;22480;50.546;12.292;2023-12-28T11:00:56;8.00;99.90
36458;DHT22;22480;50.546;12.292;2023-12-28T11:03:29;8.10;99.90
36458;DHT22;22480;50.546;12.292;2023-12-28T11:05:56;8.10;99.90
36458;DHT22;22480;50.546;12.292;2023-12-28T11:08:23;8.10;99.90
36458;DHT22;22480;50.546;12.292;2023-12-28T11:10:51;8.10;99.90
36458;DHT22;22480;50.546;12.292;2023-12-28T11:13:20;8.10;99.90
36458;DHT22;22480;50.546;12.292;2023-12-28T11:15:49;8.10;99.90
36458;DHT22;22480;50.546;12.292;2023-12-28T11:18:16;8.10;99.90
36458;DHT22;22480;50.546;12.292;2023-12-28T11:20:46;8.20;99.90
36458;DHT22;22480;50.546;12.292;2023-12-28T11:23:13;8.20;99.90
36458;DHT22;22480;50.546;12.292;2023-12-28T11:25:39;8.30;99.90
36458;DHT22;22480;50.546;12.292;2023-12-28T11:28:12;8.20;99.90
36458;DHT22;22480;50.546;12.292;2023-12-28T11:30:44;8.20;99.90
36458;DHT22;22480;50.546;12.292;2023-12-28T11:33:12;8.20;99.90
36458;DHT22;22480;50.546;12.292;2023-12-28T11:35:41;8.20;99.90
36458;DHT22;22480;50.546;12.292;2023-12-28T11:38:09;8.20;99.90
36458;DHT22;22480;50.546;12.292;2023-12-28T11:40:42;8.30;99.90
36458;DHT22;22480;50.546;12.292;2023-12-28T11:43:18;8.40;99.90
36458;DHT22;22480;50.546;12.292;2023-12-28T11:45:49;8.50;99.90
36458;DHT22;22480;50.546;12.292;2023-12-28T11:48:28;8.50;99.90
36458;DHT22;22480;50.546;12.292;2023-12-28T11:50:58;8.60;99.90
36458;DHT22;22480;50.546;12.292;2023-12-28T11:53:25;8.60;99.90
36458;DHT22;22480;50.546;12.292;2023-12-28T11:55:51;8.60;99.90
36458;DHT22;22480;50.546;12.292;2023-12-28T11:58:18;8.80;99.90
36458;DHT22;22480;50.546;12.292;2023-12-28T12:00:44;8.90;99.90
36458;DHT22;22480;50.546;12.292;2023-12-28T12:03:11;9.00;99.90
36458;DHT22;22480;50.546;12.292;2023-12-28T12:05:37;9.00;99.90
36458;DHT22;22480;50.546;12.292;2023-12-28T12:08:04;8.80;99.90
36458;DHT22;22480;50.546;12.292;2023-12-28T12:10:30;8.80;99.90
36458;DHT22;22480;50.546;12.292;2023-12-28T12:12:57;8.80;99.90
36458;DHT22;22480;50.546;12.292;2023-12-28T12:15:23;8.80;99.90
36458;DHT22;22480;50.546;12.292;2023-12-28T12:17:50;8.80;99.90
36458;DHT22;22480;50.546;12.292;2023-12-28T12:20:16;8.90;99.90
36458;DHT22;22480;50.546;12.292;2023-12-28T12:22:42;8.90;99.90
36458;DHT22;22480;50.546;12.292;2023-12-28T12:25:08;8.90;99.90
36458;DHT22;22480;50.546;12.292;2023-12-28T12:27:36;8.80;99.90
36458;DHT22;22480;50.546;12.292;2023-12-28T12:30:01;8.70;99.90
36458;DHT22;22480;50.546;12.292;2023-12-28T12:32:28;8.80;99.90
36458;DHT22;22480;50.546;12.292;2023-12-28T12:34:55;8.90;99.90
36458;DHT22;22480;50.546;12.292;2023-12-28T12:37:21;9.00;99.90
36458;DHT22;22480;50.546;12.292;2023-12-28T12:39:46;9.10;99.90
36458;DHT22;22480;50.546;12.292;2023-12-28T12:42:15;9.20;99.90
36458;DHT22;22480;50.546;12.292;2023-12-28T12:44:42;9.00;99.90
36458;DHT22;22480;50.546;12.292;2023-12-28T12:47:08;8.80;99.90
36458;DHT22;22480;50.546;12.292;2023-12-28T12:49:33;8.80;99.90
36458;DHT22;22480;50.546;12.292;2023-12-28T12:52:00;8.60;99.90
36458;DHT22;22480;50.546;12.292;2023-12-28T12:54:26;8.50;99.90
36458;DHT22;22480;50.546;12.292;2023-12-28T12:56:52;8.30;99.90
36458;DHT22;22480;50.546;12.292;2023-12-28T12:59:19;8.30;99.90
36458;DHT22;22480;50.546;12.292;2023-12-28T13:01:46;8.30;99.90
36458;DHT22;22480;50.546;12.292;2023-12-28T13:04:14;8.40;99.90
36458;DHT22;22480;50.546;12.292;2023-12-28T13:06:41;8.60;99.90
36458;DHT22;22480;50.546;12.292;2023-12-28T13:09:07;8.70;99.90
36458;DHT22;22480;50.546;12.292;2023-12-28T13:11:36;8.60;99.90
36458;DHT22;22480;50.546;12.292;2023-12-28T13:14:02;8.70;99.90
36458;DHT22;22480;50.546;12.292;2023-12-28T13:16:28;9.20;99.90
36458;DHT22;22480;50.546;12.292;2023-12-28T13:18:54;9.10;99.90
36458;DHT22;22480;50.546;12.292;2023-12-28T13:21:19;8.90;99.90
36458;DHT22;22480;50.546;12.292;2023-12-28T13:23:46;8.90;99.90
36458;DHT22;22480;50.546;12.292;2023-12-28T13:26:12;9.10;99.90
36458;DHT22;22480;50.546;12.292;2023-12-28T13:28:38;9.70;99.90
36458;DHT22;22480;50.546;12.292;2023-12-28T13:31:03;10.40;99.90
36458;DHT22;22480;50.546;12.292;2023-12-28T13:33:29;10.80;99.90
36458;DHT22;22480;50.546;12.292;2023-12-28T13:35:55;11.10;99.90
36458;DHT22;22480;50.546;12.292;2023-12-28T13:38:21;10.80;99.90
36458;DHT22;22480;50.546;12.292;2023-12-28T13:40:47;10.60;99.90
36458;DHT22;22480;50.546;12.292;2023-12-28T13:43:13;10.40;99.90
36458;DHT22;22480;50.546;12.292;2023-12-28T13:45:38;10.00;99.90
36458;DHT22;22480;50.546;12.292;2023-12-28T13:48:04;9.60;99.90
36458;DHT22;22480;50.546;12.292;2023-12-28T13:50:30;9.30;99.90
36458;DHT22;22480;50.546;12.292;2023-12-28T13:52:57;9.50;99.90
36458;DHT22;22480;50.546;12.292;2023-12-28T13:55:22;9.90;99.90
36458;DHT22;22480;50.546;12.292;2023-12-28T13:57:48;10.20;99.90
36458;DHT22;22480;50.546;12.292;2023-12-28T14:00:14;10.20;99.90
36458;DHT22;22480;50.546;12.292;2023-12-28T14:02:40;9.90;99.90
36458;DHT22;22480;50.546;12.292;2023-12-28T14:05:07;9.50;99.90
36458;DHT22;22480;50.546;12.292;2023-12-28T14:07:33;9.10;99.90
36458;DHT22;22480;50.546;12.292;2023-12-28T14:09:58;8.80;99.90
36458;DHT22;22480;50.546;12.292;2023-12-28T14:12:24;8.70;99.90
36458;DHT22;22480;50.546;12.292;2023-12-28T14:14:49;8.70;99.90
36458;DHT22;22480;50.546;12.292;2023-12-28T14:17:15;8.70;99.90
36458;DHT22;22480;50.546;12.292;2023-12-28T14:19:45;8.70;99.90
36458;DHT22;22480;50.546;12.292;2023-12-28T14:22:11;8.60;99.90
36458;DHT22;22480;50.546;12.292;2023-12-28T14:24:37;8.50;99.90
36458;DHT22;22480;50.546;12.292;2023-12-28T14:27:04;8.40;99.90
36458;DHT22;22480;50.546;12.292;2023-12-28T14:29:30;8.30;99.90
36458;DHT22;22480;50.546;12.292;2023-12-28T14:31:56;8.20;99.90
36458;DHT22;22480;50.546;12.292;2023-12-28T14:34:22;8.10;99.90
36458;DHT22;22480;50.546;12.292;2023-12-28T14:36:50;8.00;99.90
36458;DHT22;22480;50.546;12.292;2023-12-28T14:39:17;7.90;99.90
36458;DHT22;22480;50.546;12.292;2023-12-28T14:41:46;7.80;99.90
36458;DHT22;22480;50.546;12.292;2023-12-28T14:44:12;7.70;99.90
36458;DHT22;22480;50.546;12.292;2023-12-28T14:46:37;7.60;99.90
36458;DHT22;22480;50.546;12.292;2023-12-28T14:49:03;7.40;99.90
36458;DHT22;22480;50.546;12.292;2023-12-28T14:51:30;7.40;99.90
36458;DHT22;22480;50.546;12.292;2023-12-28T14:53:56;7.30;99.90
36458;DHT22;22480;50.546;12.292;2023-12-28T14:56:21;7.20;99.90
36458;DHT22;22480;50.546;12.292;2023-12-28T14:58:47;7.10;99.90
36458;DHT22;22480;50.546;12.292;2023-12-28T15:01:17;7.00;99.90
36458;DHT22;22480;50.546;12.292;2023-12-28T15:03:46;6.90;99.90
36458;DHT22;22480;50.546;12.292;2023-12-28T15:06:11;6.80;99.90
36458;DHT22;22480;50.546;12.292;2023-12-28T15:08:37;6.80;99.90
36458;DHT22;22480;50.546;12.292;2023-12-28T15:11:03;6.80;99.90
36458;DHT22;22480;50.546;12.292;2023-12-28T15:13:29;6.70;99.90
36458;DHT22;22480;50.546;12.292;2023-12-28T15:15:55;6.70;99.90
36458;DHT22;22480;50.546;12.292;2023-12-28T15:18:21;6.70;99.90
36458;DHT22;22480;50.546;12.292;2023-12-28T15:20:47;6.70;99.90
36458;DHT22;22480;50.546;12.292;2023-12-28T15:23:14;6.70;99.90
36458;DHT22;22480;50.546;12.292;2023-12-28T15:25:44;6.60;99.90